Time;durP1;ratioP1;P1;durP2;ratioP2;P2;SDS_P1;SDS_P2;PMS_P1;PMS_P2;Temp;Humidity;BMP_temperature;BMP_pressure;BME280_temperature;BME280_humidity;BME280_pressure;Samples;Min_cycle;Max_cycle;Signal;HPM_P1;HPM_P2
2021/06/08 00:00:22;;;;;;;2.65;1.70;;;18.40;81.90;;;;;;5097042;28;20031;-71
2021/06/08 00:02:52;;;;;;;4.63;2.00;;;18.30;80.40;;;;;;5097021;28;20024;-71
2021/06/08 00:05:18;;;;;;;20.42;15.70;;;18.40;81.10;;;;;;5096945;28;20028;-71
2021/06/08 00:07:45;;;;;;;10.88;9.55;;;18.40;78.30;;;;;;5096698;28;20440;-71
2021/06/08 00:10:12;;;;;;;10.13;4.95;;;18.60;76.90;;;;;;5096677;28;20028;-71
2021/06/08 00:12:38;;;;;;;16.80;8.15;;;18.70;79.50;;;;;;5096911;28;20017;-71
2021/06/08 00:15:06;;;;;;;6.80;3.58;;;18.70;79.50;;;;;;5097101;28;20312;-71
2021/06/08 00:17:31;;;;;;;3.25;2.30;;;18.70;79.40;;;;;;5097844;28;20309;-71
2021/06/08 00:19:58;;;;;;;3.83;2.13;;;18.70;80.30;;;;;;5100673;28;20035;-71
2021/06/08 00:22:23;;;;;;;7.55;4.07;;;18.60;80.30;;;;;;5100660;28;20039;-71
2021/06/08 00:24:49;;;;;;;3.40;1.83;;;18.60;80.10;;;;;;5100553;28;20028;-71
2021/06/08 00:27:15;;;;;;;3.50;2.38;;;18.60;81.30;;;;;;5100904;28;20074;-71
2021/06/08 00:29:40;;;;;;;2.22;1.85;;;18.50;81.20;;;;;;5100859;28;20020;-71
2021/06/08 00:32:07;;;;;;;2.53;1.90;;;18.60;78.70;;;;;;5100808;28;20040;-71
2021/06/08 00:34:32;;;;;;;7.50;2.65;;;18.60;78.10;;;;;;5100400;28;20419;-71
2021/06/08 00:36:58;;;;;;;6.10;2.35;;;18.70;77.30;;;;;;5100704;28;20020;-71
2021/06/08 00:39:24;;;;;;;3.50;2.17;;;18.70;77.40;;;;;;5100686;28;20023;-71
2021/06/08 00:41:49;;;;;;;3.80;2.30;;;18.80;77.20;;;;;;5100624;28;20358;-71
2021/06/08 00:44:17;;;;;;;3.35;2.10;;;18.80;75.90;;;;;;5100219;28;20458;-71
2021/06/08 00:46:45;;;;;;;2.65;1.92;;;18.80;77.10;;;;;;5100395;28;20056;-71
2021/06/08 00:49:12;;;;;;;4.38;2.05;;;18.70;78.60;;;;;;5100160;28;20020;-71
2021/06/08 00:51:38;;;;;;;2.20;1.73;;;18.60;78.20;;;;;;5100067;28;20016;-71
2021/06/08 00:54:09;;;;;;;4.90;2.05;;;18.60;79.30;;;;;;5100131;28;20066;-71
2021/06/08 00:56:38;;;;;;;3.30;1.88;;;18.60;77.80;;;;;;5100015;28;20028;-71
2021/06/08 00:59:04;;;;;;;2.60;2.38;;;18.60;76.80;;;;;;5100006;28;20028;-71
2021/06/08 01:01:30;;;;;;;5.43;1.90;;;18.70;76.50;;;;;;5099942;28;20027;-71
2021/06/08 01:03:56;;;;;;;2.60;2.40;;;18.70;78.30;;;;;;5100235;28;20038;-71
2021/06/08 01:06:22;;;;;;;2.72;2.10;;;18.70;78.30;;;;;;5100011;28;20365;-71
2021/06/08 01:08:48;;;;;;;4.15;2.25;;;18.60;76.70;;;;;;5100073;28;20045;-71
2021/06/08 01:11:14;;;;;;;2.75;2.00;;;18.60;77.10;;;;;;5099720;28;20020;-71
2021/06/08 01:13:43;;;;;;;3.55;2.50;;;18.60;78.90;;;;;;5100096;28;20035;-71
2021/06/08 01:16:10;;;;;;;3.63;2.20;;;18.60;79.00;;;;;;5099936;28;20044;-71
2021/06/08 01:18:36;;;;;;;3.35;2.50;;;18.60;76.20;;;;;;5099926;28;20343;-71
2021/06/08 01:21:07;;;;;;;4.88;2.10;;;18.70;77.70;;;;;;5099554;28;20031;-71
2021/06/08 01:23:33;;;;;;;3.67;2.00;;;18.70;77.40;;;;;;5099503;28;20042;-71
2021/06/08 01:26:00;;;;;;;3.97;1.75;;;18.60;76.10;;;;;;5099333;28;20077;-71
2021/06/08 01:28:26;;;;;;;2.67;2.20;;;18.60;76.60;;;;;;5099099;28;20024;-71
2021/06/08 01:30:53;;;;;;;1.98;1.77;;;18.60;77.70;;;;;;5098875;28;20020;-71
2021/06/08 01:33:22;;;;;;;2.25;1.70;;;18.60;77.80;;;;;;5099680;28;20044;-71
2021/06/08 01:35:50;;;;;;;2.65;2.00;;;18.60;78.90;;;;;;5099250;28;20025;-71
2021/06/08 01:38:16;;;;;;;4.63;2.20;;;18.60;77.20;;;;;;5099186;28;20028;-71
2021/06/08 01:40:44;;;;;;;2.40;1.98;;;18.60;77.30;;;;;;5099510;28;20047;-71
2021/06/08 01:43:12;;;;;;;2.58;2.20;;;18.70;76.50;;;;;;5099189;28;20040;-71
2021/06/08 01:45:40;;;;;;;2.63;2.38;;;18.80;73.40;;;;;;5098975;28;20039;-71
2021/06/08 01:48:06;;;;;;;3.42;2.13;;;18.90;73.20;;;;;;5099034;28;20026;-71
2021/06/08 01:50:32;;;;;;;3.67;1.70;;;19.00;75.80;;;;;;5098982;28;20035;-71
2021/06/08 01:53:38;;;;;;;5.10;2.17;;;19.10;75.50;;;;;;5099286;28;20024;-71
2021/06/08 01:56:11;;;;;;;2.88;2.25;;;19.10;75.60;;;;;;5099214;28;20052;-71
2021/06/08 01:58:41;;;;;;;3.83;2.17;;;19.00;74.30;;;;;;5098745;28;20024;-71
2021/06/08 02:01:15;;;;;;;2.10;1.90;;;19.10;71.40;;;;;;5099164;28;20097;-71
2021/06/08 02:03:57;;;;;;;2.20;1.80;;;19.20;70.00;;;;;;5099080;28;20092;-71
2021/06/08 02:07:06;;;;;;;1.90;1.80;;;19.40;69.90;;;;;;5098896;28;20042;-71
2021/06/08 02:09:50;;;;;;;2.95;1.70;;;19.50;72.90;;;;;;5016829;28;20057;-71
2021/06/08 02:12:20;;;;;;;3.20;1.83;;;19.40;72.50;;;;;;5096286;28;20044;-71
2021/06/08 02:15:13;;;;;;;4.05;1.90;;;19.30;73.40;;;;;;5098883;28;20481;-71
2021/06/08 02:17:45;;;;;;;2.50;2.05;;;19.30;71.40;;;;;;5098463;28;20028;-71
2021/06/08 02:20:35;;;;;;;1.83;1.63;;;19.30;69.70;;;;;;5098724;28;20095;-71
2021/06/08 02:23:03;;;;;;;2.72;1.98;;;19.30;70.70;;;;;;5098709;28;20034;-71
2021/06/08 02:25:32;;;;;;;2.47;2.05;;;19.30;73.00;;;;;;5098169;28;20039;-71
2021/06/08 02:28:02;;;;;;;2.28;2.00;;;19.30;74.40;;;;;;5098579;28;20028;-71
2021/06/08 02:30:30;;;;;;;2.38;1.80;;;19.20;77.10;;;;;;5098529;28;20087;-71
2021/06/08 02:32:58;;;;;;;2.22;2.00;;;19.10;78.10;;;;;;5098175;28;20020;-71
2021/06/08 02:35:25;;;;;;;5.20;2.60;;;18.90;76.80;;;;;;5098084;28;20416;-71
2021/06/08 02:37:52;;;;;;;4.95;2.53;;;18.90;71.10;;;;;;5098092;28;20024;-71
2021/06/08 02:40:20;;;;;;;3.78;1.73;;;19.10;71.60;;;;;;5098353;28;20320;-71
2021/06/08 02:42:46;;;;;;;7.03;1.92;;;19.00;73.40;;;;;;5098263;28;20024;-71
2021/06/08 02:45:13;;;;;;;7.10;2.00;;;19.00;71.70;;;;;;5097776;28;20093;-71
2021/06/08 02:47:41;;;;;;;2.30;1.77;;;18.90;73.10;;;;;;5098198;28;20410;-71
2021/06/08 02:50:08;;;;;;;6.68;2.25;;;18.70;72.30;;;;;;5097840;28;20423;-71
2021/06/08 02:52:35;;;;;;;3.42;2.60;;;18.70;74.80;;;;;;5097794;28;20040;-71
2021/06/08 02:55:03;;;;;;;4.00;1.95;;;18.70;75.40;;;;;;5097739;28;20032;-71
2021/06/08 02:57:29;;;;;;;3.08;2.00;;;18.70;72.10;;;;;;5097744;28;20020;-71
2021/06/08 03:00:02;;;;;;;3.83;2.17;;;18.70;74.20;;;;;;5097705;28;20038;-71
2021/06/08 03:02:29;;;;;;;3.25;2.25;;;18.60;74.50;;;;;;5097678;28;20027;-71
2021/06/08 03:05:03;;;;;;;2.70;2.30;;;18.60;76.20;;;;;;5098376;28;20190;-71
2021/06/08 03:07:30;;;;;;;4.07;2.47;;;18.60;76.00;;;;;;5097914;28;20095;-71
2021/06/08 03:10:07;;;;;;;6.18;2.10;;;18.60;76.30;;;;;;5097487;28;20055;-71
2021/06/08 03:12:38;;;;;;;4.13;2.20;;;18.70;74.30;;;;;;5097742;28;20319;-71
2021/06/08 03:15:06;;;;;;;2.75;2.10;;;18.70;75.70;;;;;;5097275;28;20412;-71
2021/06/08 03:17:33;;;;;;;2.42;2.10;;;18.70;74.70;;;;;;5097350;28;20444;-71
2021/06/08 03:20:09;;;;;;;2.58;2.05;;;18.70;75.40;;;;;;5097608;28;20319;-71
2021/06/08 03:22:36;;;;;;;3.50;2.10;;;18.70;76.50;;;;;;5097278;28;20028;-71
2021/06/08 03:25:03;;;;;;;2.88;2.25;;;18.60;77.50;;;;;;5097094;28;20066;-71
2021/06/08 03:27:29;;;;;;;2.85;2.42;;;18.60;76.80;;;;;;5097192;28;20027;-71
2021/06/08 03:29:59;;;;;;;7.70;2.70;;;18.70;75.80;;;;;;5097468;28;20047;-71
2021/06/08 03:32:25;;;;;;;3.35;2.20;;;18.70;73.90;;;;;;5097129;28;20341;-71
2021/06/08 03:34:51;;;;;;;2.83;1.83;;;18.80;71.70;;;;;;5097393;28;20103;-71
2021/06/08 03:37:19;;;;;;;5.60;1.98;;;19.00;70.60;;;;;;5097061;28;20472;-71
2021/06/08 03:39:48;;;;;;;6.85;2.53;;;19.10;69.80;;;;;;5097316;28;20051;-71
2021/06/08 03:42:15;;;;;;;3.63;2.58;;;19.30;70.40;;;;;;5097247;28;20324;-71
2021/06/08 03:44:40;;;;;;;3.17;2.00;;;19.40;71.00;;;;;;5096722;28;20128;-71
2021/06/08 03:47:07;;;;;;;3.13;2.50;;;19.40;70.10;;;;;;5097206;28;20028;-71
2021/06/08 03:49:33;;;;;;;3.55;2.05;;;19.40;69.00;;;;;;5096892;28;20420;-71
2021/06/08 03:51:59;;;;;;;6.13;2.50;;;19.60;69.20;;;;;;5096710;28;20032;-71
2021/06/08 03:54:25;;;;;;;3.55;2.35;;;19.70;70.60;;;;;;5097174;28;20028;-71
2021/06/08 03:56:54;;;;;;;4.97;2.67;;;19.70;71.70;;;;;;5096779;28;20036;-71
2021/06/08 03:59:26;;;;;;;5.15;2.22;;;19.80;69.80;;;;;;5097066;28;20024;-71
2021/06/08 04:01:53;;;;;;;3.30;2.28;;;19.80;69.70;;;;;;5097069;28;20024;-71
2021/06/08 04:04:19;;;;;;;2.65;2.08;;;19.80;70.50;;;;;;5096776;28;20028;-71
2021/06/08 04:06:46;;;;;;;3.80;2.03;;;19.80;70.90;;;;;;5096866;28;20028;-71
2021/06/08 04:09:12;;;;;;;3.22;2.50;;;19.80;69.70;;;;;;5096699;28;20408;-71
2021/06/08 04:11:40;;;;;;;6.95;2.50;;;19.90;71.30;;;;;;5096646;28;20032;-71
2021/06/08 04:14:09;;;;;;;2.60;2.28;;;19.90;73.10;;;;;;5097011;28;20027;-71
2021/06/08 04:16:35;;;;;;;4.28;2.58;;;19.80;71.40;;;;;;5096881;28;20364;-71
2021/06/08 04:19:01;;;;;;;4.28;2.40;;;19.80;71.10;;;;;;5096919;28;20020;-71
2021/06/08 04:21:27;;;;;;;4.22;2.40;;;19.70;69.40;;;;;;5096860;28;20319;-71
2021/06/08 04:23:56;;;;;;;3.45;2.60;;;19.80;70.70;;;;;;5096887;28;20435;-71
2021/06/08 04:26:23;;;;;;;3.83;2.47;;;19.80;71.10;;;;;;5096725;28;20381;-71
2021/06/08 04:28:49;;;;;;;3.78;2.30;;;19.80;71.20;;;;;;5096865;28;20307;-71
2021/06/08 04:31:15;;;;;;;3.03;2.30;;;19.90;73.10;;;;;;5096851;28;20020;-70
2021/06/08 04:33:45;;;;;;;4.50;2.30;;;19.90;73.30;;;;;;5096514;28;20020;-71
2021/06/08 04:36:12;;;;;;;3.67;2.40;;;19.90;73.20;;;;;;5096478;28;20028;-71
2021/06/08 04:38:39;;;;;;;2.45;2.22;;;19.90;73.60;;;;;;5096439;28;20032;-71
2021/06/08 04:41:05;;;;;;;2.53;2.10;;;19.90;76.10;;;;;;5096393;28;20024;-71
2021/06/08 04:43:31;;;;;;;3.15;2.60;;;19.90;76.40;;;;;;5096413;28;20055;-71
2021/06/08 04:46:02;;;;;;;2.70;2.20;;;19.80;74.60;;;;;;5096232;28;20032;-71
2021/06/08 04:48:28;;;;;;;2.58;1.90;;;19.80;74.10;;;;;;5096369;28;20024;-71
2021/06/08 04:50:54;;;;;;;4.78;3.03;;;19.80;74.80;;;;;;5096619;28;20035;-71
2021/06/08 04:53:21;;;;;;;2.65;2.30;;;19.90;74.40;;;;;;5096604;28;20020;-71
2021/06/08 04:55:47;;;;;;;3.28;2.08;;;19.90;75.30;;;;;;5096218;28;20024;-71
2021/06/08 04:58:13;;;;;;;2.70;1.98;;;19.80;75.00;;;;;;5096543;28;20034;-71
2021/06/08 05:01:07;;;;;;;4.68;2.10;;;19.90;69.90;;;;;;5096184;28;20035;-71
2021/06/08 05:03:41;;;;;;;3.08;2.47;;;19.90;68.10;;;;;;5059800;28;20040;-71
2021/06/08 05:06:16;;;;;;;2.55;2.30;;;20.00;68.50;;;;;;5099616;28;20133;-71
2021/06/08 05:08:53;;;;;;;4.30;2.40;;;20.10;69.90;;;;;;5099868;28;20027;-71
2021/06/08 05:11:21;;;;;;;2.47;2.05;;;20.10;69.20;;;;;;5100380;28;20297;-71
2021/06/08 05:13:50;;;;;;;3.85;1.98;;;20.20;71.10;;;;;;5100130;28;20028;-70
2021/06/08 05:16:17;;;;;;;2.53;2.00;;;20.10;70.00;;;;;;5099611;28;20058;-71
2021/06/08 05:18:45;;;;;;;2.78;1.70;;;20.20;69.60;;;;;;5099942;28;20032;-71
2021/06/08 05:21:12;;;;;;;2.15;1.88;;;20.20;69.00;;;;;;5099575;28;20408;-71
2021/06/08 05:23:39;;;;;;;2.15;1.95;;;20.20;69.30;;;;;;5099549;28;20432;-71
2021/06/08 05:26:05;;;;;;;2.08;1.85;;;20.20;69.80;;;;;;5099657;28;20036;-71
2021/06/08 05:28:34;;;;;;;2.42;1.80;;;20.20;70.20;;;;;;5099741;28;20124;-71
2021/06/08 05:31:00;;;;;;;2.70;1.90;;;20.30;69.60;;;;;;5099409;28;20032;-71
2021/06/08 05:33:26;;;;;;;3.20;1.98;;;20.20;69.70;;;;;;5099418;28;20023;-71
2021/06/08 05:35:56;;;;;;;3.30;2.25;;;20.20;69.20;;;;;;5099278;28;20028;-71
2021/06/08 05:38:36;;;;;;;3.25;1.98;;;20.20;70.70;;;;;;5099587;28;20024;-71
2021/06/08 05:41:07;;;;;;;3.58;1.88;;;20.20;71.30;;;;;;5099481;28;20359;-71
2021/06/08 05:43:32;;;;;;;2.05;1.85;;;20.20;71.50;;;;;;5099186;28;20040;-71
2021/06/08 05:45:59;;;;;;;3.47;1.80;;;20.20;71.70;;;;;;5099339;28;20035;-71
2021/06/08 05:48:26;;;;;;;2.38;1.70;;;20.20;71.50;;;;;;5099041;28;20469;-71
2021/06/08 05:51:01;;;;;;;2.15;1.42;;;20.30;71.50;;;;;;5099023;28;20027;-71
2021/06/08 05:53:28;;;;;;;3.23;1.60;;;20.70;69.60;;;;;;5099046;28;20020;-71
2021/06/08 05:55:56;;;;;;;2.80;1.98;;;21.00;69.30;;;;;;5098887;28;20337;-71
2021/06/08 05:58:23;;;;;;;3.53;1.67;;;21.10;67.10;;;;;;5099170;28;20039;-71
2021/06/08 06:00:50;;;;;;;7.30;2.22;;;21.10;68.00;;;;;;5099176;28;20054;-71
2021/06/08 06:03:17;;;;;;;1.92;1.40;;;21.20;68.20;;;;;;5098825;28;20555;-71
2021/06/08 06:05:43;;;;;;;1.70;1.58;;;21.20;67.20;;;;;;5098900;28;20077;-71
2021/06/08 06:08:09;;;;;;;5.22;1.40;;;21.20;67.00;;;;;;5098671;28;20035;-71
2021/06/08 06:10:35;;;;;;;5.65;1.48;;;21.30;65.70;;;;;;5098950;28;20012;-71
2021/06/08 06:13:01;;;;;;;3.28;1.60;;;21.30;66.50;;;;;;5098907;28;20043;-71
2021/06/08 06:15:30;;;;;;;2.70;1.98;;;21.30;66.30;;;;;;5098152;28;20020;-71
2021/06/08 06:17:56;;;;;;;1.65;1.48;;;21.40;67.50;;;;;;5098820;28;20028;-70
2021/06/08 06:20:22;;;;;;;2.17;1.90;;;21.40;66.50;;;;;;5098823;28;20028;-70
2021/06/08 06:22:50;;;;;;;3.80;1.60;;;21.40;66.50;;;;;;5098697;28;20032;-71
2021/06/08 06:25:16;;;;;;;2.83;1.38;;;21.50;65.80;;;;;;5098269;28;20024;-71
2021/06/08 06:27:43;;;;;;;7.03;1.65;;;21.60;66.80;;;;;;5098339;28;20024;-71
2021/06/08 06:30:11;;;;;;;2.08;1.67;;;21.80;66.90;;;;;;5098567;28;20065;-71
2021/06/08 06:32:37;;;;;;;1.83;1.55;;;22.10;66.90;;;;;;5098478;28;20032;-71
2021/06/08 06:35:06;;;;;;;3.28;2.38;;;22.80;65.80;;;;;;5098490;28;20316;-71
2021/06/08 06:37:32;;;;;;;3.10;1.80;;;23.60;64.10;;;;;;5098025;28;20028;-71
2021/06/08 06:40:00;;;;;;;1.83;1.50;;;24.20;61.00;;;;;;5098361;28;20356;-71
2021/06/08 06:42:30;;;;;;;3.25;1.92;;;25.10;59.00;;;;;;5097997;28;20434;-71
2021/06/08 06:44:58;;;;;;;2.45;1.80;;;26.10;58.00;;;;;;5097690;28;20047;-71
2021/06/08 06:47:24;;;;;;;3.67;1.13;;;26.60;56.90;;;;;;5098257;28;20082;-71
2021/06/08 06:49:50;;;;;;;2.85;1.63;;;27.00;57.40;;;;;;5098219;28;20017;-71
2021/06/08 06:52:17;;;;;;;2.08;1.45;;;27.50;55.00;;;;;;5098092;28;20384;-71
2021/06/08 06:54:44;;;;;;;2.55;1.38;;;27.70;53.60;;;;;;5098056;28;20081;-71
2021/06/08 06:57:10;;;;;;;1.40;1.27;;;28.00;55.20;;;;;;5097660;28;20031;-71
2021/06/08 06:59:38;;;;;;;1.75;1.25;;;28.20;54.40;;;;;;5097990;28;20371;-71
2021/06/08 07:02:05;;;;;;;1.30;1.00;;;28.10;54.60;;;;;;5097961;28;20103;-71
2021/06/08 07:04:31;;;;;;;2.80;1.17;;;27.90;53.80;;;;;;5097586;28;20032;-71
2021/06/08 07:06:57;;;;;;;2.05;1.30;;;27.60;56.00;;;;;;5097819;28;20028;-71
2021/06/08 07:09:25;;;;;;;7.15;1.42;;;27.40;56.60;;;;;;5097516;28;20103;-71
2021/06/08 07:11:52;;;;;;;2.08;1.10;;;27.60;54.80;;;;;;5097460;28;20098;-71
2021/06/08 07:14:19;;;;;;;1.75;1.00;;;27.60;54.90;;;;;;5097906;28;20055;-71
2021/06/08 07:16:46;;;;;;;3.58;1.13;;;27.90;53.20;;;;;;5097351;28;20031;-71
2021/06/08 07:19:14;;;;;;;1.67;1.20;;;28.10;54.00;;;;;;5097316;28;20157;-71
2021/06/08 07:21:42;;;;;;;2.35;1.20;;;28.30;54.70;;;;;;5097603;28;20169;-71
2021/06/08 07:24:09;;;;;;;3.70;1.23;;;28.70;54.10;;;;;;5097345;28;20107;-71
2021/06/08 07:26:48;;;;;;;1.83;1.13;;;29.00;52.60;;;;;;5096904;28;20297;-71
2021/06/08 07:29:14;;;;;;;2.10;1.40;;;29.10;52.60;;;;;;5097188;28;20056;-71
2021/06/08 07:31:56;;;;;;;2.25;1.20;;;29.40;54.10;;;;;;5097180;28;20020;-71
2021/06/08 07:35:00;;;;;;;2.15;1.08;;;29.70;54.00;;;;;;5097180;28;20035;-71
2021/06/08 07:37:30;;;;;;;1.50;1.30;;;30.10;50.40;;;;;;5093069;28;20032;-71
2021/06/08 07:40:01;;;;;;;1.90;1.08;;;30.40;49.70;;;;;;5097008;28;20024;-72
2021/06/08 07:42:37;;;;;;;2.30;1.10;;;30.80;48.70;;;;;;5096988;28;20111;-71
2021/06/08 07:45:19;;;;;;;2.45;1.50;;;31.00;48.40;;;;;;5096675;28;20095;-71
2021/06/08 07:47:51;;;;;;;5.40;1.20;;;31.20;47.20;;;;;;5097275;28;20020;-72
2021/06/08 07:50:36;;;;;;;4.05;1.40;;;31.20;48.60;;;;;;5074205;28;20424;-71
2021/06/08 07:53:03;;;;;;;6.63;1.40;;;30.60;47.80;;;;;;5096855;28;20052;-72
2021/06/08 07:55:30;;;;;;;2.28;1.23;;;30.90;50.30;;;;;;5096783;28;20024;-71
2021/06/08 07:57:56;;;;;;;3.33;1.60;;;31.00;49.00;;;;;;5096778;28;20099;-71
2021/06/08 08:00:23;;;;;;;3.30;1.30;;;31.20;48.10;;;;;;5097090;28;20048;-71
2021/06/08 08:02:52;;;;;;;2.35;1.42;;;31.30;48.90;;;;;;5096727;28;20537;-71
2021/06/08 08:05:19;;;;;;;3.13;1.48;;;31.20;47.10;;;;;;5096996;28;20075;-72
2021/06/08 08:07:45;;;;;;;2.65;1.35;;;31.10;51.00;;;;;;5096714;28;20024;-71
2021/06/08 08:10:12;;;;;;;2.00;1.40;;;30.80;47.40;;;;;;5096717;28;20465;-71
2021/06/08 08:12:41;;;;;;;2.30;1.48;;;30.80;48.20;;;;;;5096981;28;20058;-71
2021/06/08 08:15:08;;;;;;;2.47;1.30;;;30.60;48.10;;;;;;5097156;28;20036;-71
2021/06/08 08:17:34;;;;;;;2.28;1.30;;;30.80;48.00;;;;;;5096505;28;20039;-71
2021/06/08 08:20:03;;;;;;;3.22;1.48;;;31.00;50.10;;;;;;5096974;28;20028;-71
2021/06/08 08:22:29;;;;;;;2.85;1.70;;;30.80;47.80;;;;;;5096885;28;20351;-71
2021/06/08 08:24:54;;;;;;;3.47;1.90;;;30.00;49.20;;;;;;5096514;28;20035;-72
2021/06/08 08:27:20;;;;;;;2.50;1.70;;;30.00;49.80;;;;;;5096891;28;20016;-71
2021/06/08 08:29:46;;;;;;;2.65;1.60;;;30.00;50.40;;;;;;5096560;28;20316;-71
2021/06/08 08:32:14;;;;;;;5.07;1.50;;;30.10;50.80;;;;;;5096478;28;20016;-71
2021/06/08 08:34:42;;;;;;;1.88;1.60;;;30.20;51.00;;;;;;5096781;28;20028;-71
2021/06/08 08:37:08;;;;;;;2.70;1.17;;;30.10;49.70;;;;;;5096487;28;20420;-71
2021/06/08 08:39:34;;;;;;;3.80;1.65;;;30.40;52.50;;;;;;5099403;28;20443;-72
2021/06/08 08:42:00;;;;;;;7.00;1.75;;;30.30;50.40;;;;;;5100378;28;20020;-71
2021/06/08 08:44:27;;;;;;;4.57;2.05;;;30.20;51.90;;;;;;5100079;28;20127;-71
2021/06/08 08:46:53;;;;;;;3.08;1.63;;;29.80;50.70;;;;;;5100232;28;20432;-71
2021/06/08 08:49:19;;;;;;;2.28;1.75;;;30.00;54.00;;;;;;5100573;28;20081;-72
2021/06/08 08:51:48;;;;;;;4.53;1.67;;;30.40;54.50;;;;;;5100476;28;20016;-71
2021/06/08 08:54:18;;;;;;;2.13;1.73;;;30.70;52.10;;;;;;5100196;28;20020;-71
2021/06/08 08:56:44;;;;;;;3.00;1.67;;;30.90;50.30;;;;;;5100036;28;20024;-71
2021/06/08 08:59:15;;;;;;;4.22;1.95;;;31.20;49.70;;;;;;5100387;28;20027;-71
2021/06/08 09:01:43;;;;;;;3.42;1.67;;;31.50;49.60;;;;;;5100313;28;20093;-71
2021/06/08 09:04:10;;;;;;;3.58;2.00;;;31.40;49.60;;;;;;5100310;28;20032;-71
2021/06/08 09:06:36;;;;;;;4.43;1.73;;;31.40;49.50;;;;;;5100079;28;20048;-71
2021/06/08 09:09:05;;;;;;;3.78;1.67;;;30.70;51.60;;;;;;5099878;28;20451;-71
2021/06/08 09:11:38;;;;;;;4.05;1.60;;;29.30;53.40;;;;;;5100107;28;20016;-71
2021/06/08 09:14:04;;;;;;;4.60;2.13;;;28.50;55.10;;;;;;5100035;28;20081;-71
2021/06/08 09:16:31;;;;;;;2.25;1.90;;;28.00;56.50;;;;;;5099693;28;20028;-71
2021/06/08 09:19:00;;;;;;;4.72;1.80;;;27.60;58.40;;;;;;5099674;28;20032;-71
2021/06/08 09:21:28;;;;;;;3.10;2.15;;;27.20;58.20;;;;;;5099909;28;20024;-71
2021/06/08 09:23:54;;;;;;;2.47;1.90;;;26.60;59.50;;;;;;5099608;28;20451;-71
2021/06/08 09:26:20;;;;;;;2.63;1.60;;;26.30;60.40;;;;;;5098390;28;20024;-71
2021/06/08 09:28:46;;;;;;;2.20;1.33;;;26.30;62.00;;;;;;5099479;28;20044;-71
2021/06/08 09:31:13;;;;;;;2.40;1.55;;;26.20;60.90;;;;;;5099460;28;20027;-71
2021/06/08 09:33:51;;;;;;;2.75;1.60;;;25.80;61.90;;;;;;5099454;28;20073;-71
2021/06/08 09:36:18;;;;;;;2.05;1.63;;;25.50;61.40;;;;;;5099618;28;20028;-71
2021/06/08 09:38:56;;;;;;;2.30;1.60;;;25.30;62.70;;;;;;5099556;28;20047;-71
2021/06/08 09:41:49;;;;;;;2.55;1.92;;;25.00;61.50;;;;;;5099298;28;20027;-71
2021/06/08 09:44:17;;;;;;;3.72;1.73;;;24.80;63.60;;;;;;5099160;28;20352;-71
2021/06/08 09:46:59;;;;;;;2.63;2.25;;;24.40;62.80;;;;;;5098999;28;20039;-71
2021/06/08 09:49:30;;;;;;;5.22;2.15;;;24.30;66.60;;;;;;5099145;28;20035;-71
2021/06/08 09:52:04;;;;;;;4.55;2.05;;;24.10;67.00;;;;;;5098958;28;20439;-71
2021/06/08 09:54:33;;;;;;;2.70;2.20;;;24.00;66.70;;;;;;5099269;28;20024;-71
2021/06/08 09:57:28;;;;;;;5.03;1.95;;;23.90;66.30;;;;;;5099258;28;20051;-71
2021/06/08 09:59:59;;;;;;;4.33;2.40;;;23.80;68.00;;;;;;5099278;28;20028;-71
2021/06/08 10:02:27;;;;;;;2.60;2.00;;;23.80;67.90;;;;;;5099195;28;20028;-71
2021/06/08 10:04:54;;;;;;;3.67;2.47;;;23.80;67.70;;;;;;5098683;28;20439;-71
2021/06/08 10:07:30;;;;;;;5.45;2.40;;;23.60;69.20;;;;;;5098754;28;20024;-71
2021/06/08 10:10:09;;;;;;;4.28;2.95;;;23.50;69.00;;;;;;5098729;28;20033;-71
2021/06/08 10:12:56;;;;;;;3.80;2.63;;;23.20;69.60;;;;;;5098685;28;20057;-71
2021/06/08 10:15:23;;;;;;;3.50;3.20;;;22.80;70.80;;;;;;5084978;28;20349;-71
2021/06/08 10:18:03;;;;;;;4.85;3.33;;;22.70;73.10;;;;;;5102487;28;20419;-71
2021/06/08 10:20:32;;;;;;;5.68;3.60;;;22.70;72.80;;;;;;5114454;28;20343;-71
2021/06/08 10:23:02;;;;;;;4.78;4.00;;;22.80;72.70;;;;;;5118862;28;20100;-71
2021/06/08 10:25:29;;;;;;;5.90;4.25;;;22.80;72.30;;;;;;5118695;28;20023;-71
2021/06/08 10:27:56;;;;;;;13.52;5.82;;;22.50;72.00;;;;;;5118998;28;20035;-71
2021/06/08 10:30:22;;;;;;;6.90;6.30;;;22.30;74.60;;;;;;5118682;28;20408;-71
2021/06/08 10:32:48;;;;;;;9.05;5.88;;;22.20;75.40;;;;;;5118661;27;20026;-71
2021/06/08 10:35:14;;;;;;;7.47;6.25;;;22.30;76.20;;;;;;5117559;28;20085;-71
2021/06/08 10:37:39;;;;;;;4.85;4.45;;;22.40;76.10;;;;;;5118843;28;20024;-71
2021/06/08 10:40:06;;;;;;;5.90;5.07;;;22.40;74.30;;;;;;5118807;28;20353;-71
2021/06/08 10:42:33;;;;;;;4.30;3.90;;;22.40;74.40;;;;;;5118739;28;20369;-71
2021/06/08 10:45:06;;;;;;;5.63;4.78;;;22.20;72.40;;;;;;5118222;28;20058;-71
2021/06/08 10:47:42;;;;;;;5.88;5.25;;;22.10;73.40;;;;;;5114173;28;20058;-71
2021/06/08 10:50:29;;;;;;;6.40;4.55;;;22.20;71.40;;;;;;5110466;28;20095;-71
2021/06/08 10:52:57;;;;;;;4.78;3.58;;;23.20;71.30;;;;;;5118542;28;20038;-71
2021/06/08 10:55:39;;;;;;;3.65;3.35;;;24.30;67.70;;;;;;5118186;27;20051;-71
2021/06/08 10:58:07;;;;;;;7.13;2.50;;;24.40;63.40;;;;;;5118462;28;20072;-71
2021/06/08 11:00:39;;;;;;;3.88;2.35;;;23.80;61.30;;;;;;5118427;28;20024;-71
2021/06/08 11:03:06;;;;;;;5.68;1.90;;;24.10;62.40;;;;;;5117375;28;20035;-71
2021/06/08 11:05:47;;;;;;;4.63;2.00;;;24.70;58.90;;;;;;5118216;28;20028;-71
2021/06/08 11:08:13;;;;;;;3.58;2.75;;;24.50;58.30;;;;;;5117961;28;20039;-71
2021/06/08 11:10:43;;;;;;;3.28;2.50;;;24.30;63.20;;;;;;5117928;28;20016;-71
2021/06/08 11:13:09;;;;;;;4.78;2.60;;;24.00;64.50;;;;;;5118175;28;20043;-71
2021/06/08 11:15:42;;;;;;;4.18;2.35;;;23.70;62.30;;;;;;5117786;28;20446;-71
2021/06/08 11:18:19;;;;;;;3.72;2.97;;;23.60;63.50;;;;;;5117750;28;20039;-71
2021/06/08 11:21:09;;;;;;;3.80;3.50;;;23.70;66.80;;;;;;5117705;28;20476;-71
2021/06/08 11:23:45;;;;;;;4.38;3.00;;;23.50;65.70;;;;;;5117550;28;20032;-71
2021/06/08 11:26:18;;;;;;;3.22;2.10;;;23.00;63.90;;;;;;5117888;28;20042;-71
2021/06/08 11:28:52;;;;;;;3.17;2.58;;;22.80;61.90;;;;;;5117621;28;20411;-71
2021/06/08 11:31:20;;;;;;;6.30;2.60;;;22.70;64.30;;;;;;5117895;28;20020;-71
2021/06/08 11:33:48;;;;;;;3.45;3.08;;;22.80;65.30;;;;;;5117577;28;20027;-71
2021/06/08 11:36:20;;;;;;;2.40;2.20;;;22.60;69.20;;;;;;5117445;28;20035;-71
2021/06/08 11:38:52;;;;;;;2.75;2.08;;;22.40;70.30;;;;;;5117718;28;20032;-71
2021/06/08 11:41:18;;;;;;;5.28;2.88;;;22.20;69.10;;;;;;5117752;28;20030;-71
2021/06/08 11:43:48;;;;;;;8.02;4.40;;;22.10;72.30;;;;;;5117362;28;20123;-71
2021/06/08 11:46:29;;;;;;;4.28;3.50;;;22.20;76.90;;;;;;5117493;28;20031;-71
2021/06/08 11:49:08;;;;;;;4.80;4.15;;;22.30;75.60;;;;;;5117342;28;20061;-71
2021/06/08 11:51:41;;;;;;;7.40;4.50;;;22.40;78.60;;;;;;5117571;28;20023;-71
2021/06/08 11:54:13;;;;;;;4.70;4.30;;;22.60;80.20;;;;;;5117619;28;20035;-71
2021/06/08 11:56:50;;;;;;;4.32;3.92;;;22.80;79.60;;;;;;5117196;28;20031;-71
2021/06/08 11:59:22;;;;;;;3.88;2.88;;;23.10;75.40;;;;;;5117231;28;20097;-71
2021/06/08 12:01:53;;;;;;;3.10;2.30;;;23.30;73.50;;;;;;5117536;28;20414;-71
2021/06/08 12:04:20;;;;;;;3.35;1.80;;;23.80;70.90;;;;;;5117501;28;20035;-71
2021/06/08 12:06:55;;;;;;;3.38;2.08;;;24.70;73.20;;;;;;5117295;28;20353;-71
2021/06/08 12:09:22;;;;;;;1.95;1.77;;;25.20;63.60;;;;;;5117107;28;20062;-71
2021/06/08 12:11:49;;;;;;;3.35;1.95;;;25.70;64.80;;;;;;5117107;28;20311;-71
2021/06/08 12:14:18;;;;;;;2.72;1.73;;;26.10;61.30;;;;;;5120227;28;20327;-71
2021/06/08 12:16:50;;;;;;;4.20;1.60;;;26.10;63.80;;;;;;5121542;28;20338;-71
2021/06/08 12:19:17;;;;;;;2.13;1.60;;;26.00;60.50;;;;;;5121309;28;20408;-71
2021/06/08 12:21:44;;;;;;;3.03;1.80;;;25.90;62.00;;;;;;5121499;28;20055;-71
2021/06/08 12:24:20;;;;;;;2.17;1.98;;;25.60;59.90;;;;;;5121515;28;20361;-71
2021/06/08 12:27:03;;;;;;;2.83;1.90;;;25.20;60.60;;;;;;5121305;28;20058;-71
2021/06/08 12:29:29;;;;;;;3.53;1.85;;;24.80;63.10;;;;;;5121374;27;20110;-71
2021/06/08 12:32:10;;;;;;;2.00;1.77;;;24.40;63.30;;;;;;5121008;28;20050;-71
2021/06/08 12:34:38;;;;;;;2.20;1.83;;;24.20;63.60;;;;;;5121242;28;20043;-71
2021/06/08 12:37:04;;;;;;;4.63;2.10;;;24.20;64.00;;;;;;5120909;28;20024;-71
2021/06/08 12:39:32;;;;;;;3.85;2.00;;;24.10;63.60;;;;;;5121187;27;20031;-71
2021/06/08 12:42:14;;;;;;;2.45;1.73;;;24.00;63.30;;;;;;5121128;28;20028;-71
2021/06/08 12:44:41;;;;;;;3.17;1.80;;;24.00;63.10;;;;;;5120516;28;20113;-71
2021/06/08 12:47:07;;;;;;;2.00;1.80;;;24.10;64.60;;;;;;5120992;28;20115;-71
2021/06/08 12:49:35;;;;;;;2.40;1.90;;;24.10;63.10;;;;;;5120658;28;20042;-71
2021/06/08 12:52:01;;;;;;;2.95;2.25;;;24.10;64.00;;;;;;5120635;28;20026;-71
2021/06/08 12:54:27;;;;;;;2.05;1.80;;;24.00;63.80;;;;;;5120545;28;20027;-71
2021/06/08 12:56:53;;;;;;;5.80;1.95;;;24.00;61.20;;;;;;5120529;28;20165;-71